Time;durP1;ratioP1;P1;durP2;ratioP2;P2;SDS_P1;SDS_P2;PMS_P1;PMS_P2;Temp;Humidity;BMP_temperature;BMP_pressure;BME280_temperature;BME280_humidity;BME280_pressure;Samples;Min_cycle;Max_cycle;Signal;HPM_P1;HPM_P2
2021/04/07 00:02:19;;;;;;;9.38;4.85;;;0.60;93.30;;;;;;5009699;28;20064;-79
2021/04/07 00:04:51;;;;;;;11.48;6.63;;;0.80;93.60;;;;;;5033052;28;20279;-79
2021/04/07 00:07:17;;;;;;;13.50;4.00;;;0.70;93.60;;;;;;5008293;28;20464;-79
2021/04/07 00:09:42;;;;;;;8.85;3.58;;;0.70;93.50;;;;;;5031368;28;20041;-78
2021/04/07 00:12:08;;;;;;;12.93;5.65;;;0.70;93.70;;;;;;5039831;28;20060;-78
2021/04/07 00:14:33;;;;;;;7.03;4.57;;;0.70;93.70;;;;;;5048634;28;20033;-79
2021/04/07 00:16:59;;;;;;;6.13;3.70;;;0.80;93.70;;;;;;5008639;28;20550;-78
2021/04/07 00:19:24;;;;;;;9.75;5.78;;;0.80;93.60;;;;;;5024585;28;20080;-78
2021/04/07 00:21:50;;;;;;;10.73;5.25;;;0.80;93.30;;;;;;5020176;28;20025;-78
2021/04/07 00:24:15;;;;;;;7.50;4.85;;;0.80;93.50;;;;;;5023559;28;20033;-78
2021/04/07 00:26:41;;;;;;;5.88;2.70;;;0.70;93.40;;;;;;5011837;28;20380;-78
2021/04/07 00:29:06;;;;;;;15.30;5.95;;;0.80;93.70;;;;;;5030425;28;20029;-78
2021/04/07 00:31:32;;;;;;;12.90;4.15;;;0.80;93.50;;;;;;5025078;28;20040;-78
2021/04/07 00:33:57;;;;;;;6.43;3.40;;;0.80;93.50;;;;;;5034842;28;20388;-78
2021/04/07 00:36:23;;;;;;;11.45;5.40;;;0.70;93.30;;;;;;5022692;28;20033;-79
2021/04/07 00:38:48;;;;;;;8.40;4.38;;;0.70;93.40;;;;;;5032965;28;20159;-76
2021/04/07 00:41:14;;;;;;;9.38;4.68;;;0.70;93.50;;;;;;5044602;28;20037;-76
2021/04/07 00:43:40;;;;;;;6.50;4.18;;;0.70;93.40;;;;;;5009906;28;20044;-76
2021/04/07 00:46:05;;;;;;;9.68;4.25;;;0.70;93.40;;;;;;5044781;28;20025;-76
2021/04/07 00:48:31;;;;;;;6.72;4.20;;;0.50;93.30;;;;;;5060294;28;20095;-76
2021/04/07 00:50:56;;;;;;;10.65;4.22;;;0.50;93.50;;;;;;5056023;28;20550;-76
2021/04/07 00:53:22;;;;;;;10.90;4.75;;;0.50;93.50;;;;;;5009341;28;20048;-78
2021/04/07 00:55:47;;;;;;;9.00;4.85;;;0.50;93.50;;;;;;5048155;28;20451;-76
2021/04/07 00:58:13;;;;;;;3.20;1.85;;;0.50;93.50;;;;;;5020003;28;20025;-76
2021/04/07 01:00:39;;;;;;;11.93;4.85;;;0.50;93.90;;;;;;5011577;28;20035;-76
2021/04/07 01:03:05;;;;;;;8.13;4.50;;;0.60;93.60;;;;;;5025848;28;20036;-76
2021/04/07 01:05:30;;;;;;;6.57;4.93;;;0.50;93.60;;;;;;5043140;28;20439;-75
2021/04/07 01:07:57;;;;;;;7.97;3.33;;;0.60;93.70;;;;;;5026539;28;20032;-75
2021/04/07 01:10:22;;;;;;;9.90;3.17;;;0.60;93.70;;;;;;5025202;28;20038;-75
2021/04/07 01:12:48;;;;;;;12.27;6.05;;;0.60;93.70;;;;;;5024558;28;20048;-75
2021/04/07 01:15:14;;;;;;;3.08;2.33;;;0.70;93.90;;;;;;5020645;28;20048;-75
2021/04/07 01:17:40;;;;;;;7.80;3.10;;;0.70;93.80;;;;;;5018308;28;20025;-75
2021/04/07 01:20:11;;;;;;;7.00;3.42;;;0.60;93.80;;;;;;5036112;28;20489;-75
2021/04/07 01:22:37;;;;;;;10.05;4.72;;;0.60;93.60;;;;;;5040819;28;20551;-75
2021/04/07 01:25:04;;;;;;;12.02;5.68;;;0.60;93.80;;;;;;5019300;28;20025;-75
2021/04/07 01:27:29;;;;;;;10.52;5.90;;;0.50;93.60;;;;;;5013501;28;20021;-75
2021/04/07 01:29:55;;;;;;;9.27;4.78;;;0.50;93.80;;;;;;5023259;28;20064;-75
2021/04/07 01:32:20;;;;;;;11.63;5.10;;;0.50;93.70;;;;;;5048446;28;20021;-75
2021/04/07 01:34:46;;;;;;;12.52;6.63;;;0.50;93.70;;;;;;5015190;28;20032;-75
2021/04/07 01:37:12;;;;;;;5.95;4.28;;;0.50;93.60;;;;;;5019895;28;20480;-75
2021/04/07 01:39:37;;;;;;;13.27;6.13;;;0.40;93.60;;;;;;5008895;28;20037;-75
2021/04/07 01:42:03;;;;;;;15.35;6.72;;;0.40;93.80;;;;;;5050521;28;20029;-75
2021/04/07 01:44:28;;;;;;;16.33;6.68;;;0.50;94.00;;;;;;5040231;28;20029;-75
2021/04/07 01:46:54;;;;;;;10.52;5.15;;;0.40;93.70;;;;;;5032350;28;20025;-75
2021/04/07 01:49:19;;;;;;;11.18;4.32;;;0.50;93.90;;;;;;5019940;28;20052;-75
2021/04/07 01:51:45;;;;;;;13.90;5.00;;;0.60;93.80;;;;;;5017600;28;20392;-75
2021/04/07 01:54:12;;;;;;;13.63;4.40;;;0.60;93.80;;;;;;5005778;28;20036;-75
2021/04/07 01:56:56;;;;;;;12.15;5.22;;;0.50;93.80;;;;;;5044584;28;20033;-75
2021/04/07 01:59:28;;;;;;;8.88;3.50;;;0.50;93.80;;;;;;5039522;28;20053;-78
2021/04/07 02:01:54;;;;;;;2.40;1.65;;;0.50;93.90;;;;;;5016393;28;20076;-75
2021/04/07 02:04:20;;;;;;;2.55;2.00;;;0.60;93.90;;;;;;5038810;28;20069;-76
2021/04/07 02:06:46;;;;;;;13.10;5.38;;;0.60;93.90;;;;;;5015068;28;20442;-75
2021/04/07 02:09:12;;;;;;;13.82;6.25;;;0.60;93.80;;;;;;5014037;28;20037;-75
2021/04/07 02:11:46;;;;;;;10.35;5.03;;;0.60;93.80;;;;;;5007729;28;20421;-75
2021/04/07 02:14:12;;;;;;;13.80;7.38;;;0.60;94.00;;;;;;5015243;28;20034;-75
2021/04/07 02:16:38;;;;;;;6.88;3.47;;;0.60;93.70;;;;;;5032637;28;20439;-75
2021/04/07 02:19:07;;;;;;;11.30;4.60;;;0.60;93.90;;;;;;5039640;28;20041;-78
2021/04/07 02:21:33;;;;;;;14.27;5.95;;;0.70;93.90;;;;;;5009008;28;20029;-77
2021/04/07 02:23:58;;;;;;;11.75;5.38;;;0.70;93.90;;;;;;5029379;28;20110;-77
2021/04/07 02:26:24;;;;;;;13.68;5.53;;;0.60;93.90;;;;;;5029685;28;20094;-77
2021/04/07 02:28:49;;;;;;;6.63;4.50;;;0.60;94.00;;;;;;5029445;28;20427;-75
2021/04/07 02:31:15;;;;;;;13.40;8.75;;;0.60;94.10;;;;;;5021424;28;20048;-75
2021/04/07 02:33:40;;;;;;;13.48;7.55;;;0.60;94.00;;;;;;5009759;28;20033;-75
2021/04/07 02:36:06;;;;;;;13.38;7.05;;;0.60;94.10;;;;;;5041336;28;20209;-75
2021/04/07 02:38:31;;;;;;;11.38;5.40;;;0.60;94.20;;;;;;5042896;28;20500;-76
2021/04/07 02:40:57;;;;;;;9.57;5.35;;;0.60;94.10;;;;;;5031277;28;20051;-76
2021/04/07 02:43:22;;;;;;;17.60;9.75;;;0.70;94.10;;;;;;5061483;28;20048;-76
2021/04/07 02:45:48;;;;;;;13.82;6.78;;;0.60;93.90;;;;;;5047635;28;20036;-75
2021/04/07 02:48:13;;;;;;;13.88;6.55;;;0.50;94.00;;;;;;5042292;28;20266;-76
2021/04/07 02:50:39;;;;;;;10.05;5.53;;;0.50;94.10;;;;;;5020664;28;20032;-75
2021/04/07 02:53:04;;;;;;;10.80;5.72;;;0.60;94.20;;;;;;5040920;28;20036;-76
2021/04/07 02:55:30;;;;;;;11.85;5.93;;;0.60;94.30;;;;;;5025963;28;20033;-76
2021/04/07 02:57:55;;;;;;;14.73;7.80;;;0.60;94.20;;;;;;5045732;28;20108;-76
2021/04/07 03:00:21;;;;;;;17.77;8.23;;;0.60;94.30;;;;;;5042358;28;20601;-76
2021/04/07 03:02:47;;;;;;;12.95;5.45;;;0.60;94.10;;;;;;5045775;28;20056;-76
2021/04/07 03:05:13;;;;;;;14.43;6.00;;;0.60;94.00;;;;;;5055738;28;20034;-75
2021/04/07 03:07:39;;;;;;;21.85;6.95;;;0.60;94.10;;;;;;5042033;28;20042;-76
2021/04/07 03:10:06;;;;;;;14.68;8.35;;;0.60;94.10;;;;;;5016297;28;20037;-76
2021/04/07 03:12:31;;;;;;;15.20;7.03;;;0.60;94.20;;;;;;5033390;28;20658;-77
2021/04/07 03:14:57;;;;;;;19.73;11.90;;;0.60;94.20;;;;;;5047766;28;20112;-77
2021/04/07 03:17:22;;;;;;;5.38;3.97;;;0.50;94.10;;;;;;5026181;28;20025;-76
2021/04/07 03:19:48;;;;;;;16.92;9.82;;;0.60;94.30;;;;;;5031792;28;20022;-77
2021/04/07 03:22:13;;;;;;;9.77;5.82;;;0.50;94.20;;;;;;5024041;28;20029;-77
2021/04/07 03:24:39;;;;;;;8.93;4.65;;;0.50;94.30;;;;;;5010724;28;20029;-76
2021/04/07 03:27:05;;;;;;;14.40;6.90;;;0.70;94.10;;;;;;5056417;28;20017;-77
2021/04/07 03:29:30;;;;;;;12.25;6.22;;;0.60;94.20;;;;;;5062437;28;20178;-77
2021/04/07 03:31:56;;;;;;;9.85;6.30;;;0.60;94.20;;;;;;5023901;28;20104;-76
2021/04/07 03:34:21;;;;;;;12.90;6.15;;;0.60;94.10;;;;;;5005361;28;20037;-76
2021/04/07 03:36:47;;;;;;;21.98;9.23;;;0.60;94.10;;;;;;5034863;28;20037;-76
2021/04/07 03:39:12;;;;;;;11.88;6.30;;;0.70;94.10;;;;;;5005334;28;20029;-77
2021/04/07 03:41:38;;;;;;;13.23;6.50;;;0.60;94.20;;;;;;5047967;28;20060;-77
2021/04/07 03:44:03;;;;;;;8.75;4.97;;;0.70;94.50;;;;;;5017070;28;20025;-77
2021/04/07 03:46:29;;;;;;;8.00;4.78;;;0.70;94.10;;;;;;5028725;28;20033;-77
2021/04/07 03:48:54;;;;;;;9.85;6.00;;;0.70;94.20;;;;;;5018052;28;20043;-76
2021/04/07 03:51:20;;;;;;;9.93;4.95;;;0.80;94.20;;;;;;5041608;28;20029;-77
2021/04/07 03:53:47;;;;;;;14.98;8.10;;;0.80;94.20;;;;;;5043871;28;20119;-77
2021/04/07 03:56:12;;;;;;;7.82;4.90;;;0.70;94.20;;;;;;5025929;28;20481;-77
2021/04/07 03:58:38;;;;;;;12.80;7.15;;;0.70;94.20;;;;;;5017929;28;20066;-77
2021/04/07 04:01:04;;;;;;;9.27;5.63;;;0.80;94.30;;;;;;5008002;28;20030;-76
2021/04/07 04:03:30;;;;;;;12.88;6.40;;;0.80;94.30;;;;;;5055999;28;20113;-76
2021/04/07 04:05:56;;;;;;;14.68;7.47;;;0.70;94.30;;;;;;5008859;28;20459;-77
2021/04/07 04:08:21;;;;;;;12.30;6.80;;;0.80;94.40;;;;;;5043213;28;20029;-77
2021/04/07 04:10:47;;;;;;;10.73;6.32;;;0.80;94.40;;;;;;5019468;28;20090;-77
2021/04/07 04:13:12;;;;;;;20.17;9.55;;;0.80;94.30;;;;;;5022084;28;20566;-77
2021/04/07 04:15:38;;;;;;;6.57;4.70;;;0.80;94.30;;;;;;5024047;28;20053;-77
2021/04/07 04:18:09;;;;;;;16.85;7.13;;;0.80;94.50;;;;;;5024537;28;20056;-77
2021/04/07 04:20:35;;;;;;;16.35;9.13;;;0.80;94.50;;;;;;5029673;28;20029;-77
2021/04/07 04:23:00;;;;;;;15.18;8.15;;;0.80;94.60;;;;;;5039094;28;20256;-77
2021/04/07 04:25:26;;;;;;;31.35;19.55;;;0.80;94.50;;;;;;5009889;28;20029;-77
2021/04/07 04:27:52;;;;;;;23.05;15.45;;;0.80;94.50;;;;;;5033457;28;20499;-77
2021/04/07 04:30:22;;;;;;;16.10;10.05;;;0.80;94.40;;;;;;5004730;28;20125;-77
2021/04/07 04:32:48;;;;;;;14.85;9.30;;;0.90;94.30;;;;;;5008683;28;20481;-77
2021/04/07 04:35:14;;;;;;;22.42;13.38;;;0.80;94.30;;;;;;5005952;28;20044;-77
2021/04/07 04:37:39;;;;;;;21.35;11.07;;;0.80;94.40;;;;;;5047780;28;20142;-77
2021/04/07 04:40:06;;;;;;;25.33;12.70;;;0.70;94.50;;;;;;5035126;28;20396;-77
2021/04/07 04:42:31;;;;;;;23.38;11.57;;;0.80;94.50;;;;;;5001831;28;20062;-77
2021/04/07 04:44:57;;;;;;;21.08;12.18;;;0.90;94.50;;;;;;5042792;28;20486;-77
2021/04/07 04:47:22;;;;;;;16.08;8.05;;;0.90;94.40;;;;;;5017240;28;20040;-77
2021/04/07 04:49:48;;;;;;;13.48;8.05;;;0.80;94.40;;;;;;5041785;28;20044;-77
2021/04/07 04:52:13;;;;;;;15.20;8.05;;;0.90;94.40;;;;;;5020769;28;20033;-77
2021/04/07 04:54:39;;;;;;;12.63;6.80;;;0.90;94.50;;;;;;5010392;28;20415;-77
2021/04/07 04:57:04;;;;;;;22.00;11.40;;;0.90;94.50;;;;;;5012126;28;20452;-77
2021/04/07 04:59:30;;;;;;;20.88;12.90;;;0.90;94.50;;;;;;5016473;28;20641;-76
2021/04/07 05:01:55;;;;;;;20.38;9.68;;;0.80;94.80;;;;;;5036072;28;20033;-77
2021/04/07 05:04:21;;;;;;;6.65;4.35;;;0.90;94.60;;;;;;5006912;28;20442;-77
2021/04/07 05:06:46;;;;;;;16.85;9.68;;;0.90;94.50;;;;;;5044735;28;20095;-77
2021/04/07 05:09:12;;;;;;;16.25;8.63;;;0.80;94.80;;;;;;5008885;28;20992;-77
2021/04/07 05:11:37;;;;;;;19.13;9.85;;;1.00;94.40;;;;;;5030800;28;20415;-77
2021/04/07 05:14:03;;;;;;;17.55;6.95;;;1.00;94.40;;;;;;4294306;28;9999929;-77
2021/04/07 05:16:29;;;;;;;18.90;10.65;;;0.90;94.50;;;;;;5034088;28;20120;-77
2021/04/07 05:18:54;;;;;;;10.20;5.45;;;0.90;94.70;;;;;;5039902;28;20072;-77
2021/04/07 05:21:20;;;;;;;17.15;10.93;;;0.90;94.70;;;;;;5007615;28;20256;-77
2021/04/07 05:23:45;;;;;;;20.52;10.55;;;0.90;94.60;;;;;;5048527;28;20174;-76
2021/04/07 05:26:11;;;;;;;16.58;6.22;;;0.90;94.80;;;;;;5018849;28;20163;-77
2021/04/07 05:28:40;;;;;;;17.27;11.65;;;0.90;94.80;;;;;;5037229;28;20037;-77
2021/04/07 05:31:05;;;;;;;20.08;12.73;;;1.00;94.70;;;;;;5017594;28;20489;-77
2021/04/07 05:33:33;;;;;;;18.80;10.60;;;1.00;94.60;;;;;;5021744;28;20039;-77
2021/04/07 05:35:59;;;;;;;19.73;9.63;;;0.90;94.80;;;;;;5015639;28;20404;-78
2021/04/07 05:38:25;;;;;;;11.93;7.78;;;0.90;94.90;;;;;;5027909;28;20041;-77
2021/04/07 05:40:54;;;;;;;7.47;4.47;;;0.90;94.90;;;;;;5002542;28;20035;-76
2021/04/07 05:43:20;;;;;;;7.93;5.45;;;0.90;95.10;;;;;;5032281;28;20037;-77
2021/04/07 05:45:46;;;;;;;6.40;3.90;;;0.90;94.90;;;;;;4999673;28;20076;-76
2021/04/07 05:48:11;;;;;;;13.93;5.75;;;1.00;94.90;;;;;;5049440;28;20088;-77
2021/04/07 05:50:42;;;;;;;13.15;7.63;;;0.90;94.90;;;;;;5031993;28;20060;-77
2021/04/07 05:53:07;;;;;;;15.98;9.63;;;1.00;94.90;;;;;;5028078;28;20036;-77
2021/04/07 05:55:33;;;;;;;13.38;7.82;;;0.90;95.00;;;;;;5041243;28;20046;-77
2021/04/07 05:58:00;;;;;;;15.95;8.55;;;0.90;95.00;;;;;;5028693;28;20037;-77
2021/04/07 06:00:26;;;;;;;12.13;7.50;;;0.90;95.00;;;;;;5021855;28;20460;-77
2021/04/07 06:02:55;;;;;;;7.78;4.60;;;0.90;95.10;;;;;;5042723;28;20119;-77
2021/04/07 06:05:22;;;;;;;13.32;5.85;;;0.90;95.20;;;;;;5041343;28;20041;-77
2021/04/07 06:07:47;;;;;;;6.53;4.35;;;0.90;95.10;;;;;;5021083;28;20025;-76
2021/04/07 06:10:13;;;;;;;12.70;7.15;;;0.90;95.20;;;;;;5026583;28;20030;-77
2021/04/07 06:12:39;;;;;;;7.57;4.35;;;0.90;95.40;;;;;;5042306;28;20357;-76
2021/04/07 06:15:05;;;;;;;6.22;4.65;;;0.90;95.20;;;;;;5007963;28;20064;-76
2021/04/07 06:17:31;;;;;;;12.82;8.10;;;1.00;95.20;;;;;;5021917;28;20063;-76
2021/04/07 06:19:56;;;;;;;14.68;9.38;;;0.90;95.20;;;;;;5027192;28;20041;-76
2021/04/07 06:22:22;;;;;;;16.05;6.65;;;0.90;95.30;;;;;;5057135;28;20462;-76
2021/04/07 06:24:47;;;;;;;14.00;8.73;;;1.00;95.40;;;;;;5043761;28;20485;-76
2021/04/07 06:27:13;;;;;;;11.50;5.93;;;0.90;95.50;;;;;;5040522;28;20044;-76
2021/04/07 06:29:38;;;;;;;13.60;7.43;;;0.90;95.40;;;;;;5030101;28;20321;-76
2021/04/07 06:32:04;;;;;;;11.85;5.18;;;0.90;95.30;;;;;;5045879;28;20392;-76
2021/04/07 06:34:30;;;;;;;7.28;4.68;;;0.90;95.40;;;;;;5007021;28;20492;-77
2021/04/07 06:36:55;;;;;;;9.40;5.47;;;0.90;95.30;;;;;;5028213;28;20474;-77
2021/04/07 06:39:21;;;;;;;11.27;7.60;;;0.90;95.50;;;;;;5025243;28;20442;-77
2021/04/07 06:41:46;;;;;;;10.85;5.05;;;0.90;95.50;;;;;;5003684;28;20459;-77
2021/04/07 06:44:12;;;;;;;8.85;6.03;;;1.00;95.60;;;;;;5040955;28;20037;-77
2021/04/07 06:46:38;;;;;;;8.80;5.90;;;0.90;95.40;;;;;;5045076;28;20044;-77
2021/04/07 06:49:03;;;;;;;12.43;7.13;;;0.90;95.70;;;;;;5028306;28;20369;-77
2021/04/07 06:51:29;;;;;;;7.30;4.88;;;0.90;95.60;;;;;;5030463;28;20556;-77
2021/04/07 06:53:54;;;;;;;10.82;6.75;;;0.90;95.60;;;;;;5039864;28;20515;-77
2021/04/07 06:56:20;;;;;;;7.05;4.80;;;0.90;95.60;;;;;;5030000;28;20120;-77
2021/04/07 06:58:45;;;;;;;11.55;7.00;;;1.00;95.70;;;;;;5013601;28;20036;-77
2021/04/07 07:01:11;;;;;;;8.43;6.68;;;0.90;95.70;;;;;;5013277;28;20500;-77
2021/04/07 07:03:37;;;;;;;9.35;5.47;;;1.00;95.50;;;;;;5043967;28;20035;-77
2021/04/07 07:06:02;;;;;;;9.07;6.18;;;1.00;95.60;;;;;;5034581;28;20087;-77
2021/04/07 07:08:29;;;;;;;8.23;6.50;;;0.90;95.60;;;;;;5045531;28;20653;-77
2021/04/07 07:10:55;;;;;;;10.02;6.80;;;1.00;95.70;;;;;;5044669;28;20480;-77
2021/04/07 07:13:22;;;;;;;11.00;6.18;;;1.00;95.80;;;;;;5045560;28;20037;-77
2021/04/07 07:15:48;;;;;;;7.78;5.50;;;1.00;95.70;;;;;;5049541;28;20029;-77
2021/04/07 07:18:23;;;;;;;11.68;6.75;;;1.00;95.60;;;;;;5013180;28;20086;-77
2021/04/07 07:20:49;;;;;;;7.85;5.60;;;1.00;95.90;;;;;;5006879;28;20075;-77
2021/04/07 07:23:27;;;;;;;7.70;5.07;;;1.00;95.80;;;;;;5028172;28;20037;-77
2021/04/07 07:26:03;;;;;;;7.63;4.65;;;1.00;95.70;;;;;;5063532;28;20067;-76
2021/04/07 07:28:43;;;;;;;12.05;6.55;;;1.00;95.80;;;;;;5047770;28;20112;-78
2021/04/07 07:31:24;;;;;;;9.15;7.30;;;1.00;95.80;;;;;;5013077;28;20052;-78
2021/04/07 07:33:50;;;;;;;6.65;5.25;;;1.00;95.60;;;;;;5056937;28;20037;-78
2021/04/07 07:36:16;;;;;;;11.90;7.43;;;1.00;95.80;;;;;;5039392;28;20042;-77
2021/04/07 07:38:50;;;;;;;10.40;5.93;;;1.00;95.80;;;;;;5046365;28;20032;-77
2021/04/07 07:41:19;;;;;;;6.75;4.55;;;1.00;95.90;;;;;;5010679;28;20045;-77
2021/04/07 07:43:44;;;;;;;10.95;6.90;;;1.00;95.80;;;;;;5021115;28;20037;-78
2021/04/07 07:46:11;;;;;;;7.60;5.47;;;1.00;95.80;;;;;;5028059;28;22261;-78
2021/04/07 07:48:38;;;;;;;8.45;6.38;;;1.00;95.80;;;;;;5013789;28;20041;-78
2021/04/07 07:51:33;;;;;;;7.10;5.95;;;1.00;95.90;;;;;;5029511;28;20028;-78
2021/04/07 07:53:58;;;;;;;7.22;5.10;;;1.00;96.00;;;;;;5032550;28;20037;-78
2021/04/07 07:56:35;;;;;;;6.70;5.70;;;1.00;96.00;;;;;;5028456;28;20449;-78
2021/04/07 07:59:00;;;;;;;9.23;7.97;;;1.00;95.80;;;;;;5044774;28;20161;-78
2021/04/07 08:01:26;;;;;;;4.95;3.60;;;1.10;95.90;;;;;;5029664;28;20075;-79
2021/04/07 08:03:51;;;;;;;9.57;7.28;;;1.10;96.00;;;;;;5024793;28;20544;-78
2021/04/07 08:06:17;;;;;;;8.70;5.90;;;1.10;96.10;;;;;;5013992;28;20041;-79
2021/04/07 08:08:43;;;;;;;10.93;8.85;;;1.10;96.00;;;;;;5015817;28;20029;-79
2021/04/07 08:11:09;;;;;;;9.27;6.05;;;1.00;96.10;;;;;;5025865;28;20045;-79
2021/04/07 08:13:36;;;;;;;8.82;7.63;;;1.10;96.10;;;;;;5049497;28;20037;-79
2021/04/07 08:16:02;;;;;;;8.82;7.10;;;1.10;96.50;;;;;;5020328;28;20131;-80
2021/04/07 08:18:28;;;;;;;13.43;10.10;;;1.10;95.90;;;;;;5045230;28;20163;-80
2021/04/07 08:20:54;;;;;;;19.73;12.30;;;1.10;96.00;;;;;;5018972;28;20034;-80
2021/04/07 08:23:20;;;;;;;6.95;5.03;;;1.10;95.70;;;;;;5004007;28;20067;-80
2021/04/07 08:25:52;;;;;;;10.55;7.60;;;1.10;96.10;;;;;;5034841;28;20099;-79
2021/04/07 08:28:17;;;;;;;12.65;9.52;;;1.20;96.10;;;;;;5034187;28;20033;-80
2021/04/07 08:30:43;;;;;;;6.03;4.18;;;1.30;96.10;;;;;;5003565;28;20041;-80
2021/04/07 08:33:09;;;;;;;7.88;6.40;;;1.30;95.80;;;;;;5020891;28;20029;-80
2021/04/07 08:35:34;;;;;;;9.73;7.90;;;1.30;96.20;;;;;;5020596;28;20037;-81
2021/04/07 08:38:03;;;;;;;10.27;5.70;;;1.20;95.80;;;;;;5010686;28;20033;-81
2021/04/07 08:41:05;;;;;;;9.57;7.30;;;1.20;96.20;;;;;;5048448;28;20048;-80
2021/04/07 08:43:31;;;;;;;10.27;6.78;;;1.20;95.80;;;;;;5057755;28;20024;-79
2021/04/07 08:45:57;;;;;;;12.23;9.10;;;1.30;95.80;;;;;;5012005;28;20076;-79
2021/04/07 08:48:22;;;;;;;10.15;4.88;;;1.20;95.90;;;;;;5008352;28;20041;-79
2021/04/07 08:51:05;;;;;;;7.95;6.10;;;1.30;96.10;;;;;;5009477;28;20489;-78
2021/04/07 08:53:31;;;;;;;11.13;7.28;;;1.30;96.10;;;;;;5000960;28;20061;-78
2021/04/07 08:55:57;;;;;;;12.00;7.65;;;1.30;96.10;;;;;;5009326;28;20125;-78
2021/04/07 08:58:24;;;;;;;6.15;4.68;;;1.40;96.20;;;;;;5041866;28;20132;-79
2021/04/07 09:00:54;;;;;;;10.23;7.60;;;1.40;96.00;;;;;;5025186;28;20443;-78
2021/04/07 09:03:21;;;;;;;8.85;6.35;;;1.40;96.00;;;;;;5018778;28;20038;-78
2021/04/07 09:05:48;;;;;;;12.73;8.45;;;1.40;96.10;;;;;;5022425;28;20398;-78
2021/04/07 09:08:27;;;;;;;19.55;13.20;;;1.50;96.00;;;;;;5018657;28;20049;-78
2021/04/07 09:10:57;;;;;;;12.38;8.10;;;1.50;95.90;;;;;;5017769;28;20082;-77
2021/04/07 09:13:24;;;;;;;16.58;12.05;;;1.40;95.70;;;;;;5037340;28;20049;-79
2021/04/07 09:16:01;;;;;;;22.25;13.85;;;1.40;96.10;;;;;;5018940;28;20045;-78
2021/04/07 09:18:36;;;;;;;10.13;6.35;;;1.40;95.70;;;;;;5023561;28;20504;-78
2021/04/07 09:21:02;;;;;;;9.32;6.47;;;1.50;95.90;;;;;;5056356;28;20036;-77
2021/04/07 09:23:30;;;;;;;14.55;8.38;;;1.60;96.00;;;;;;5039724;28;20049;-80
2021/04/07 09:26:09;;;;;;;16.52;10.88;;;1.60;96.00;;;;;;5040339;28;20500;-77
2021/04/07 09:28:43;;;;;;;12.73;9.35;;;1.70;96.00;;;;;;5028860;28;20037;-78
2021/04/07 09:31:17;;;;;;;19.23;9.82;;;1.70;95.90;;;;;;5008474;28;20532;-78
2021/04/07 09:33:51;;;;;;;15.88;10.43;;;1.80;95.90;;;;;;5017937;28;20127;-78
2021/04/07 09:36:18;;;;;;;16.40;10.98;;;1.80;95.90;;;;;;5022394;28;20034;-78
2021/04/07 09:38:51;;;;;;;20.50;13.68;;;1.80;96.20;;;;;;5028760;28;20059;-78
2021/04/07 09:41:44;;;;;;;15.85;12.30;;;1.80;95.80;;;;;;5009286;28;20580;-78
2021/04/07 09:44:11;;;;;;;20.70;14.07;;;1.80;95.60;;;;;;5021877;28;20045;-78
2021/04/07 09:46:37;;;;;;;8.32;4.55;;;1.80;95.80;;;;;;5020275;28;20036;-78
2021/04/07 09:49:11;;;;;;;13.63;6.82;;;1.90;95.80;;;;;;5007093;28;20044;-78
2021/04/07 09:51:37;;;;;;;11.15;7.72;;;2.00;96.00;;;;;;5045228;28;20052;-78
2021/04/07 09:54:08;;;;;;;7.22;4.93;;;2.00;96.00;;;;;;5033051;28;20044;-80
2021/04/07 09:56:47;;;;;;;13.57;8.55;;;2.00;95.90;;;;;;5065394;28;20036;-79
2021/04/07 09:59:12;;;;;;;10.68;6.65;;;2.00;95.90;;;;;;5026754;28;20049;-78
2021/04/07 10:01:38;;;;;;;11.98;7.93;;;2.00;95.90;;;;;;5032531;28;20083;-78
2021/04/07 10:04:04;;;;;;;15.50;10.73;;;2.00;95.90;;;;;;5004248;28;20436;-78
2021/04/07 10:06:30;;;;;;;19.23;13.45;;;2.00;95.70;;;;;;5018279;28;20033;-77
2021/04/07 10:09:02;;;;;;;16.98;10.23;;;2.10;96.00;;;;;;5012283;28;20039;-77
2021/04/07 10:11:28;;;;;;;14.18;5.70;;;2.10;95.90;;;;;;5039248;28;20083;-77
2021/04/07 10:14:00;;;;;;;16.55;11.65;;;2.10;95.80;;;;;;5017584;28;20435;-77
2021/04/07 10:16:31;;;;;;;16.20;11.02;;;2.20;95.70;;;;;;5028983;28;20462;-77
2021/04/07 10:18:56;;;;;;;16.42;11.73;;;2.10;95.40;;;;;;5013149;28;20102;-77
2021/04/07 10:21:23;;;;;;;13.25;9.68;;;2.10;95.30;;;;;;5009966;28;20033;-77
2021/04/07 10:23:48;;;;;;;5.20;3.35;;;2.20;95.60;;;;;;5018458;28;20029;-80
2021/04/07 10:26:15;;;;;;;18.13;12.25;;;2.30;95.60;;;;;;5029685;28;20488;-80
2021/04/07 10:28:42;;;;;;;13.70;9.30;;;2.30;95.60;;;;;;5024063;28;20037;-76
2021/04/07 10:31:10;;;;;;;11.80;7.47;;;2.40;95.90;;;;;;5012278;28;20041;-79
2021/04/07 10:33:36;;;;;;;9.25;6.43;;;2.40;95.60;;;;;;5010877;28;20492;-77
2021/04/07 10:36:02;;;;;;;9.98;6.25;;;2.50;95.60;;;;;;5026863;28;20047;-79
2021/04/07 10:38:32;;;;;;;14.60;8.52;;;2.60;96.00;;;;;;5023750;28;20032;-76
2021/04/07 10:40:59;;;;;;;10.23;6.20;;;2.70;95.80;;;;;;5017845;28;20095;-78
2021/04/07 10:43:29;;;;;;;11.02;6.85;;;2.80;95.90;;;;;;5032734;28;20493;-77
2021/04/07 10:45:58;;;;;;;9.88;5.97;;;2.90;95.60;;;;;;5018188;28;20064;-77
2021/04/07 10:48:24;;;;;;;16.73;9.85;;;2.90;95.90;;;;;;5037125;28;20404;-78
2021/04/07 10:50:49;;;;;;;5.22;3.78;;;2.90;95.70;;;;;;5025606;28;20036;-78
2021/04/07 10:53:15;;;;;;;10.77;6.78;;;2.90;95.50;;;;;;5043995;28;20029;-78
2021/04/07 10:55:40;;;;;;;9.43;6.22;;;2.90;95.40;;;;;;5018429;28;20145;-78
2021/04/07 10:58:06;;;;;;;4.75;3.70;;;2.90;95.50;;;;;;5014286;28;20035;-78
2021/04/07 11:00:39;;;;;;;16.58;11.07;;;2.90;95.90;;;;;;5044859;28;20047;-78
2021/04/07 11:03:05;;;;;;;16.83;10.80;;;3.00;96.20;;;;;;5021884;28;20033;-78
2021/04/07 11:05:46;;;;;;;15.98;10.10;;;3.10;95.90;;;;;;5020971;28;20029;-78
2021/04/07 11:08:15;;;;;;;10.65;7.40;;;3.30;96.30;;;;;;5015458;28;20091;-78
2021/04/07 11:10:43;;;;;;;20.55;12.00;;;3.40;95.90;;;;;;5012066;28;20037;-78
2021/04/07 11:13:10;;;;;;;12.05;5.70;;;3.70;96.20;;;;;;5016331;28;20061;-78
2021/04/07 11:15:35;;;;;;;10.20;4.88;;;3.90;96.10;;;;;;5019783;28;20033;-79
2021/04/07 11:18:01;;;;;;;10.23;6.72;;;3.90;95.50;;;;;;5009840;28;20029;-78
2021/04/07 11:20:27;;;;;;;25.35;9.75;;;3.90;95.80;;;;;;5011911;28;20109;-79
2021/04/07 11:22:52;;;;;;;21.20;10.98;;;4.00;96.40;;;;;;5029316;28;20108;-78
2021/04/07 11:25:20;;;;;;;8.70;5.43;;;4.20;96.50;;;;;;5024005;28;20482;-78
2021/04/07 11:27:45;;;;;;;10.73;7.40;;;4.30;96.10;;;;;;5053859;28;20032;-78
2021/04/07 11:30:13;;;;;;;12.00;7.47;;;4.50;96.10;;;;;;5033751;28;20463;-78
2021/04/07 11:32:48;;;;;;;14.80;8.85;;;4.70;96.90;;;;;;5050510;28;20061;-78
2021/04/07 11:35:22;;;;;;;12.05;7.07;;;4.60;96.70;;;;;;5007612;28;20029;-78
2021/04/07 11:45:39;;;;;;;23.00;8.65;;;5.00;96.80;;;;;;5022291;28;20112;-78
2021/04/07 11:48:05;;;;;;;16.58;7.13;;;5.20;96.80;;;;;;5004716;28;20158;-78
2021/04/07 11:50:31;;;;;;;13.93;3.88;;;5.60;97.60;;;;;;5052333;28;20149;-78
2021/04/07 11:52:56;;;;;;;12.27;3.92;;;5.80;97.50;;;;;;5013053;28;20558;-78
2021/04/07 11:55:22;;;;;;;13.23;3.13;;;6.20;98.00;;;;;;5005488;28;20489;-79
2021/04/07 11:57:47;;;;;;;12.15;4.90;;;6.50;97.20;;;;;;5030550;28;20036;-79
2021/04/07 12:00:13;;;;;;;15.50;3.97;;;6.80;98.10;;;;;;5043760;28;20082;-79
2021/04/07 12:02:49;;;;;;;11.15;3.33;;;7.00;97.20;;;;;;5016189;28;20030;-79
2021/04/07 12:05:17;;;;;;;15.98;3.90;;;7.30;97.40;;;;;;5020127;28;20025;-79
2021/04/07 12:07:43;;;;;;;12.80;3.35;;;7.50;97.30;;;;;;5039959;28;20496;-80
2021/04/07 12:10:09;;;;;;;9.35;3.33;;;7.80;97.10;;;;;;5036127;28;20117;-80
2021/04/07 12:12:34;;;;;;;10.20;2.85;;;8.00;97.00;;;;;;5043207;28;20059;-80
2021/04/07 12:15:00;;;;;;;10.60;1.88;;;8.20;97.90;;;;;;5044942;28;20102;-81
2021/04/07 12:17:25;;;;;;;8.45;2.85;;;8.50;96.60;;;;;;5046373;28;20036;-80
2021/04/07 12:19:51;;;;;;;7.75;3.05;;;8.80;97.00;;;;;;5034765;28;20029;-79
2021/04/07 12:22:17;;;;;;;10.93;2.65;;;9.00;97.10;;;;;;5011235;28;20021;-79
2021/04/07 12:24:42;;;;;;;10.48;3.80;;;9.30;96.50;;;;;;5048850;28;20047;-79
2021/04/07 12:27:08;;;;;;;12.95;3.58;;;9.50;97.80;;;;;;5032515;28;20036;-80
2021/04/07 12:29:34;;;;;;;11.35;3.67;;;9.60;96.10;;;;;;5062328;28;20032;-79
2021/04/07 12:32:00;;;;;;;18.65;5.50;;;9.60;95.80;;;;;;5039755;28;20799;-80
2021/04/07 12:34:26;;;;;;;15.27;5.00;;;9.40;96.30;;;;;;5046460;28;20022;-78
2021/04/07 12:36:51;;;;;;;23.15;5.60;;;8.90;95.60;;;;;;4334978;28;10000663;-79
2021/04/07 12:39:17;;;;;;;19.85;3.13;;;8.60;95.60;;;;;;5043898;28;20025;-77
2021/04/07 12:44:08;;;;;;;10.43;2.20;;;6.80;94.90;;;;;;5049079;28;20039;-78
2021/04/07 12:46:33;;;;;;;6.97;1.70;;;6.40;95.00;;;;;;5026580;28;20538;-77
2021/04/07 12:48:59;;;;;;;13.98;1.83;;;6.00;95.50;;;;;;5014308;28;20041;-78
2021/04/07 12:51:24;;;;;;;7.43;1.52;;;5.80;96.00;;;;;;5022015;28;20036;-77
2021/04/07 12:53:50;;;;;;;8.68;1.65;;;5.70;95.70;;;;;;5056810;28;20499;-78
2021/04/07 12:56:17;;;;;;;10.48;1.70;;;5.70;95.90;;;;;;5005462;28;20038;-78
2021/04/07 12:58:47;;;;;;;18.35;2.30;;;5.90;96.10;;;;;;5014914;28;20037;-78